sensor_id;sensor_type;location;lat;lon;timestamp;temperature;humidity
20866;DHT22;10593;48.398;10.698;2023-01-24T00:00:10;4.20;60.70
20866;DHT22;10593;48.398;10.698;2023-01-24T00:02:37;4.20;60.70
20866;DHT22;10593;48.398;10.698;2023-01-24T00:05:04;4.20;60.70
20866;DHT22;10593;48.398;10.698;2023-01-24T00:07:30;4.20;60.80
20866;DHT22;10593;48.398;10.698;2023-01-24T00:09:56;4.20;60.70
20866;DHT22;10593;48.398;10.698;2023-01-24T00:12:21;4.20;60.70
20866;DHT22;10593;48.398;10.698;2023-01-24T00:14:47;4.20;60.80
20866;DHT22;10593;48.398;10.698;2023-01-24T00:17:13;4.20;60.70
20866;DHT22;10593;48.398;10.698;2023-01-24T00:19:39;4.20;60.80
20866;DHT22;10593;48.398;10.698;2023-01-24T00:22:05;4.20;60.80
20866;DHT22;10593;48.398;10.698;2023-01-24T00:24:32;4.20;60.80
20866;DHT22;10593;48.398;10.698;2023-01-24T00:27:00;4.20;60.80
20866;DHT22;10593;48.398;10.698;2023-01-24T00:29:26;4.20;60.80
20866;DHT22;10593;48.398;10.698;2023-01-24T00:31:52;4.20;60.80
20866;DHT22;10593;48.398;10.698;2023-01-24T00:34:17;4.20;60.80
20866;DHT22;10593;48.398;10.698;2023-01-24T00:36:43;4.20;60.80
20866;DHT22;10593;48.398;10.698;2023-01-24T00:39:10;4.20;60.80
20866;DHT22;10593;48.398;10.698;2023-01-24T00:41:36;4.20;60.90
20866;DHT22;10593;48.398;10.698;2023-01-24T00:44:02;4.20;60.90
20866;DHT22;10593;48.398;10.698;2023-01-24T00:46:28;4.20;60.90
20866;DHT22;10593;48.398;10.698;2023-01-24T00:48:53;4.20;61.00
20866;DHT22;10593;48.398;10.698;2023-01-24T00:51:19;4.20;61.00
20866;DHT22;10593;48.398;10.698;2023-01-24T00:53:45;4.20;61.00
20866;DHT22;10593;48.398;10.698;2023-01-24T00:56:10;4.10;60.90
20866;DHT22;10593;48.398;10.698;2023-01-24T00:58:36;4.20;61.00
20866;DHT22;10593;48.398;10.698;2023-01-24T01:01:02;4.20;61.10
20866;DHT22;10593;48.398;10.698;2023-01-24T01:03:28;4.20;61.10
20866;DHT22;10593;48.398;10.698;2023-01-24T01:06:02;4.20;61.10
20866;DHT22;10593;48.398;10.698;2023-01-24T01:08:30;4.20;61.20
20866;DHT22;10593;48.398;10.698;2023-01-24T01:10:56;4.20;61.10
20866;DHT22;10593;48.398;10.698;2023-01-24T01:13:22;4.20;61.10
20866;DHT22;10593;48.398;10.698;2023-01-24T01:15:47;4.20;61.20
20866;DHT22;10593;48.398;10.698;2023-01-24T01:18:13;4.10;61.00
20866;DHT22;10593;48.398;10.698;2023-01-24T01:20:39;4.20;61.10
20866;DHT22;10593;48.398;10.698;2023-01-24T01:23:05;4.20;61.20
20866;DHT22;10593;48.398;10.698;2023-01-24T01:25:31;4.20;61.20
20866;DHT22;10593;48.398;10.698;2023-01-24T01:27:57;4.20;61.20
20866;DHT22;10593;48.398;10.698;2023-01-24T01:30:22;4.20;61.20
20866;DHT22;10593;48.398;10.698;2023-01-24T01:32:48;4.20;61.20
20866;DHT22;10593;48.398;10.698;2023-01-24T01:35:14;4.20;61.20
20866;DHT22;10593;48.398;10.698;2023-01-24T01:37:39;4.20;61.20
20866;DHT22;10593;48.398;10.698;2023-01-24T01:40:06;4.20;61.20
20866;DHT22;10593;48.398;10.698;2023-01-24T01:42:54;4.20;61.20
20866;DHT22;10593;48.398;10.698;2023-01-24T01:48:38;4.20;61.40
20866;DHT22;10593;48.398;10.698;2023-01-24T01:51:27;4.20;61.40
20866;DHT22;10593;48.398;10.698;2023-01-24T01:54:02;4.20;61.40
20866;DHT22;10593;48.398;10.698;2023-01-24T01:56:41;4.20;61.30
20866;DHT22;10593;48.398;10.698;2023-01-24T01:59:13;4.20;61.40
20866;DHT22;10593;48.398;10.698;2023-01-24T02:01:44;4.20;61.40
20866;DHT22;10593;48.398;10.698;2023-01-24T02:04:25;4.20;61.40
20866;DHT22;10593;48.398;10.698;2023-01-24T02:07:07;4.20;61.60
20866;DHT22;10593;48.398;10.698;2023-01-24T02:09:40;4.20;61.60
20866;DHT22;10593;48.398;10.698;2023-01-24T02:12:11;4.20;61.40
20866;DHT22;10593;48.398;10.698;2023-01-24T02:14:40;4.20;61.40
20866;DHT22;10593;48.398;10.698;2023-01-24T02:17:31;4.20;61.40
20866;DHT22;10593;48.398;10.698;2023-01-24T02:20:08;4.20;61.40
20866;DHT22;10593;48.398;10.698;2023-01-24T02:26:23;4.20;61.60
20866;DHT22;10593;48.398;10.698;2023-01-24T02:29:01;4.20;61.50
20866;DHT22;10593;48.398;10.698;2023-01-24T02:32:00;4.20;61.40
20866;DHT22;10593;48.398;10.698;2023-01-24T02:34:29;4.20;61.70
20866;DHT22;10593;48.398;10.698;2023-01-24T02:36:57;4.20;61.40
20866;DHT22;10593;48.398;10.698;2023-01-24T02:39:59;4.20;61.40
20866;DHT22;10593;48.398;10.698;2023-01-24T02:42:33;4.20;61.80
20866;DHT22;10593;48.398;10.698;2023-01-24T02:45:11;4.20;61.50
20866;DHT22;10593;48.398;10.698;2023-01-24T02:47:45;4.20;61.50
20866;DHT22;10593;48.398;10.698;2023-01-24T02:50:13;4.20;61.60
20866;DHT22;10593;48.398;10.698;2023-01-24T02:52:40;4.20;61.50
20866;DHT22;10593;48.398;10.698;2023-01-24T02:55:24;4.20;61.60
20866;DHT22;10593;48.398;10.698;2023-01-24T02:57:50;4.20;61.50
20866;DHT22;10593;48.398;10.698;2023-01-24T03:00:41;4.20;61.60
20866;DHT22;10593;48.398;10.698;2023-01-24T03:03:08;4.20;61.70
20866;DHT22;10593;48.398;10.698;2023-01-24T03:05:35;4.20;61.60
20866;DHT22;10593;48.398;10.698;2023-01-24T03:08:19;4.20;61.60
20866;DHT22;10593;48.398;10.698;2023-01-24T03:10:45;4.20;61.60
20866;DHT22;10593;48.398;10.698;2023-01-24T03:13:12;4.20;61.70
20866;DHT22;10593;48.398;10.698;2023-01-24T03:16:01;4.20;61.70
20866;DHT22;10593;48.398;10.698;2023-01-24T03:18:46;4.20;61.70
20866;DHT22;10593;48.398;10.698;2023-01-24T03:21:30;4.20;61.70
20866;DHT22;10593;48.398;10.698;2023-01-24T03:24:15;4.20;61.60
20866;DHT22;10593;48.398;10.698;2023-01-24T03:26:59;4.20;61.60
20866;DHT22;10593;48.398;10.698;2023-01-24T03:29:44;4.20;61.60
20866;DHT22;10593;48.398;10.698;2023-01-24T03:32:28;4.20;61.60
20866;DHT22;10593;48.398;10.698;2023-01-24T03:35:12;4.20;61.70
20866;DHT22;10593;48.398;10.698;2023-01-24T03:37:37;4.20;61.60
20866;DHT22;10593;48.398;10.698;2023-01-24T03:40:22;4.20;61.70
20866;DHT22;10593;48.398;10.698;2023-01-24T03:42:47;4.20;61.70
20866;DHT22;10593;48.398;10.698;2023-01-24T03:45:19;4.20;61.70
20866;DHT22;10593;48.398;10.698;2023-01-24T03:47:49;4.20;61.80
20866;DHT22;10593;48.398;10.698;2023-01-24T03:50:23;4.20;61.70
20866;DHT22;10593;48.398;10.698;2023-01-24T03:53:12;4.20;61.70
20866;DHT22;10593;48.398;10.698;2023-01-24T03:55:39;4.20;61.70
20866;DHT22;10593;48.398;10.698;2023-01-24T03:58:07;4.20;61.70
20866;DHT22;10593;48.398;10.698;2023-01-24T04:00:34;4.20;61.70
20866;DHT22;10593;48.398;10.698;2023-01-24T04:03:00;4.20;61.80
20866;DHT22;10593;48.398;10.698;2023-01-24T04:05:26;4.20;61.70
20866;DHT22;10593;48.398;10.698;2023-01-24T04:07:55;4.20;61.70
20866;DHT22;10593;48.398;10.698;2023-01-24T04:10:22;4.20;61.80
20866;DHT22;10593;48.398;10.698;2023-01-24T04:12:48;4.20;61.70
20866;DHT22;10593;48.398;10.698;2023-01-24T04:15:19;4.20;61.80
20866;DHT22;10593;48.398;10.698;2023-01-24T04:17:46;4.20;61.80
20866;DHT22;10593;48.398;10.698;2023-01-24T04:20:12;4.20;61.80
20866;DHT22;10593;48.398;10.698;2023-01-24T04:22:39;4.20;61.70
20866;DHT22;10593;48.398;10.698;2023-01-24T04:25:05;4.20;61.70
20866;DHT22;10593;48.398;10.698;2023-01-24T04:27:31;4.20;61.80
20866;DHT22;10593;48.398;10.698;2023-01-24T04:29:57;4.20;61.80
20866;DHT22;10593;48.398;10.698;2023-01-24T04:32:23;4.20;61.80
20866;DHT22;10593;48.398;10.698;2023-01-24T04:34:48;4.20;61.80
20866;DHT22;10593;48.398;10.698;2023-01-24T04:37:14;4.20;61.80
20866;DHT22;10593;48.398;10.698;2023-01-24T04:39:40;4.20;61.80
20866;DHT22;10593;48.398;10.698;2023-01-24T04:42:05;4.20;61.80
20866;DHT22;10593;48.398;10.698;2023-01-24T04:44:32;4.20;61.80
20866;DHT22;10593;48.398;10.698;2023-01-24T04:46:58;4.30;61.90
20866;DHT22;10593;48.398;10.698;2023-01-24T04:49:24;4.30;61.80
20866;DHT22;10593;48.398;10.698;2023-01-24T04:51:50;4.20;62.40
20866;DHT22;10593;48.398;10.698;2023-01-24T04:54:17;4.20;61.80
20866;DHT22;10593;48.398;10.698;2023-01-24T04:56:43;4.30;61.80
20866;DHT22;10593;48.398;10.698;2023-01-24T04:59:11;4.20;61.70
20866;DHT22;10593;48.398;10.698;2023-01-24T05:01:38;4.20;61.80
20866;DHT22;10593;48.398;10.698;2023-01-24T05:04:04;4.30;61.80
20866;DHT22;10593;48.398;10.698;2023-01-24T05:06:31;4.30;61.90
20866;DHT22;10593;48.398;10.698;2023-01-24T05:08:58;4.30;61.80
20866;DHT22;10593;48.398;10.698;2023-01-24T05:11:25;4.20;61.70
20866;DHT22;10593;48.398;10.698;2023-01-24T05:13:50;4.30;61.80
20866;DHT22;10593;48.398;10.698;2023-01-24T05:16:17;4.30;61.80
20866;DHT22;10593;48.398;10.698;2023-01-24T05:18:43;4.30;61.80
20866;DHT22;10593;48.398;10.698;2023-01-24T05:21:14;4.30;62.50
20866;DHT22;10593;48.398;10.698;2023-01-24T05:23:43;4.30;61.80
20866;DHT22;10593;48.398;10.698;2023-01-24T05:26:13;4.30;61.80
20866;DHT22;10593;48.398;10.698;2023-01-24T05:28:39;4.30;61.80
20866;DHT22;10593;48.398;10.698;2023-01-24T05:31:05;4.30;61.80
20866;DHT22;10593;48.398;10.698;2023-01-24T05:33:35;4.30;61.80
20866;DHT22;10593;48.398;10.698;2023-01-24T05:36:07;4.30;61.80
20866;DHT22;10593;48.398;10.698;2023-01-24T05:38:35;4.30;62.00
20866;DHT22;10593;48.398;10.698;2023-01-24T05:41:03;4.30;61.80
20866;DHT22;10593;48.398;10.698;2023-01-24T05:43:34;4.30;62.50
20866;DHT22;10593;48.398;10.698;2023-01-24T05:46:06;4.20;62.40
20866;DHT22;10593;48.398;10.698;2023-01-24T05:48:35;4.30;61.80
20866;DHT22;10593;48.398;10.698;2023-01-24T05:51:08;4.30;61.80
20866;DHT22;10593;48.398;10.698;2023-01-24T05:53:37;4.30;61.90
20866;DHT22;10593;48.398;10.698;2023-01-24T05:56:15;4.30;61.80
20866;DHT22;10593;48.398;10.698;2023-01-24T05:58:43;4.30;61.80
20866;DHT22;10593;48.398;10.698;2023-01-24T06:01:18;4.30;61.80
20866;DHT22;10593;48.398;10.698;2023-01-24T06:03:48;4.30;61.90
20866;DHT22;10593;48.398;10.698;2023-01-24T06:06:17;4.30;61.80
20866;DHT22;10593;48.398;10.698;2023-01-24T06:08:45;4.30;61.80
20866;DHT22;10593;48.398;10.698;2023-01-24T06:11:19;4.30;62.50
20866;DHT22;10593;48.398;10.698;2023-01-24T06:13:49;4.30;62.50
20866;DHT22;10593;48.398;10.698;2023-01-24T06:16:20;4.30;61.80
20866;DHT22;10593;48.398;10.698;2023-01-24T06:18:48;4.30;61.80
20866;DHT22;10593;48.398;10.698;2023-01-24T06:21:28;4.30;61.80
20866;DHT22;10593;48.398;10.698;2023-01-24T06:23:56;4.30;61.80
20866;DHT22;10593;48.398;10.698;2023-01-24T06:26:22;4.30;61.70
20866;DHT22;10593;48.398;10.698;2023-01-24T06:28:48;4.30;61.80
20866;DHT22;10593;48.398;10.698;2023-01-24T06:37:37;4.30;61.90
20866;DHT22;10593;48.398;10.698;2023-01-24T06:40:22;4.30;61.70
20866;DHT22;10593;48.398;10.698;2023-01-24T06:42:49;4.30;61.70
20866;DHT22;10593;48.398;10.698;2023-01-24T06:45:16;4.20;61.50
20866;DHT22;10593;48.398;10.698;2023-01-24T06:47:42;4.20;61.50
20866;DHT22;10593;48.398;10.698;2023-01-24T06:50:20;4.30;61.70
20866;DHT22;10593;48.398;10.698;2023-01-24T06:52:50;4.20;61.60
20866;DHT22;10593;48.398;10.698;2023-01-24T06:55:16;4.30;61.60
20866;DHT22;10593;48.398;10.698;2023-01-24T06:57:42;4.30;61.60
20866;DHT22;10593;48.398;10.698;2023-01-24T07:00:09;4.30;61.60
20866;DHT22;10593;48.398;10.698;2023-01-24T07:02:35;4.30;61.60
20866;DHT22;10593;48.398;10.698;2023-01-24T07:05:01;4.30;61.70
20866;DHT22;10593;48.398;10.698;2023-01-24T07:07:26;4.30;61.60
20866;DHT22;10593;48.398;10.698;2023-01-24T07:09:52;4.30;61.60
20866;DHT22;10593;48.398;10.698;2023-01-24T07:12:18;4.30;61.60
20866;DHT22;10593;48.398;10.698;2023-01-24T07:14:43;4.30;61.60
20866;DHT22;10593;48.398;10.698;2023-01-24T07:17:10;4.20;61.40
20866;DHT22;10593;48.398;10.698;2023-01-24T07:19:36;4.30;61.60
20866;DHT22;10593;48.398;10.698;2023-01-24T07:22:02;4.30;61.50
20866;DHT22;10593;48.398;10.698;2023-01-24T07:24:29;4.30;61.60
20866;DHT22;10593;48.398;10.698;2023-01-24T07:26:56;4.30;61.60
20866;DHT22;10593;48.398;10.698;2023-01-24T07:29:23;4.30;61.60
20866;DHT22;10593;48.398;10.698;2023-01-24T07:31:51;4.30;61.60
20866;DHT22;10593;48.398;10.698;2023-01-24T07:34:18;4.30;61.60
20866;DHT22;10593;48.398;10.698;2023-01-24T07:36:45;4.30;61.60
20866;DHT22;10593;48.398;10.698;2023-01-24T07:39:11;4.30;61.60
20866;DHT22;10593;48.398;10.698;2023-01-24T07:41:37;4.30;61.60
20866;DHT22;10593;48.398;10.698;2023-01-24T07:44:08;4.30;62.20
20866;DHT22;10593;48.398;10.698;2023-01-24T07:46:34;4.30;61.60
20866;DHT22;10593;48.398;10.698;2023-01-24T07:49:01;4.30;61.50
20866;DHT22;10593;48.398;10.698;2023-01-24T07:51:27;4.30;61.60
20866;DHT22;10593;48.398;10.698;2023-01-24T07:53:53;4.30;61.50
20866;DHT22;10593;48.398;10.698;2023-01-24T07:56:19;4.30;61.60
20866;DHT22;10593;48.398;10.698;2023-01-24T07:58:45;4.30;61.50
20866;DHT22;10593;48.398;10.698;2023-01-24T08:01:16;4.30;61.50
20866;DHT22;10593;48.398;10.698;2023-01-24T08:03:45;4.30;61.60
20866;DHT22;10593;48.398;10.698;2023-01-24T08:06:11;4.30;61.50
20866;DHT22;10593;48.398;10.698;2023-01-24T08:08:37;4.30;61.50
20866;DHT22;10593;48.398;10.698;2023-01-24T08:11:03;4.30;61.50
20866;DHT22;10593;48.398;10.698;2023-01-24T08:13:29;4.30;61.50
20866;DHT22;10593;48.398;10.698;2023-01-24T08:15:54;4.30;61.50
20866;DHT22;10593;48.398;10.698;2023-01-24T08:18:20;4.30;61.40
20866;DHT22;10593;48.398;10.698;2023-01-24T08:20:46;4.30;61.40
20866;DHT22;10593;48.398;10.698;2023-01-24T08:23:11;4.30;61.40
20866;DHT22;10593;48.398;10.698;2023-01-24T08:25:37;4.30;61.40
20866;DHT22;10593;48.398;10.698;2023-01-24T08:28:02;4.30;61.40
20866;DHT22;10593;48.398;10.698;2023-01-24T08:30:28;4.30;61.50
20866;DHT22;10593;48.398;10.698;2023-01-24T08:33:02;4.30;61.40
20866;DHT22;10593;48.398;10.698;2023-01-24T08:35:30;4.40;61.60
20866;DHT22;10593;48.398;10.698;2023-01-24T08:37:57;4.40;61.50
20866;DHT22;10593;48.398;10.698;2023-01-24T08:40:23;4.30;61.40
20866;DHT22;10593;48.398;10.698;2023-01-24T08:42:48;4.40;61.50
20866;DHT22;10593;48.398;10.698;2023-01-24T08:45:14;4.40;61.60
20866;DHT22;10593;48.398;10.698;2023-01-24T08:47:40;4.30;61.50
20866;DHT22;10593;48.398;10.698;2023-01-24T08:50:07;4.40;61.60
20866;DHT22;10593;48.398;10.698;2023-01-24T08:52:34;4.40;61.60
20866;DHT22;10593;48.398;10.698;2023-01-24T08:55:00;4.40;61.60
20866;DHT22;10593;48.398;10.698;2023-01-24T08:57:25;4.40;61.60
20866;DHT22;10593;48.398;10.698;2023-01-24T08:59:51;4.30;61.50
20866;DHT22;10593;48.398;10.698;2023-01-24T09:02:17;4.40;61.60
20866;DHT22;10593;48.398;10.698;2023-01-24T09:04:43;4.40;61.60
20866;DHT22;10593;48.398;10.698;2023-01-24T09:07:12;4.40;61.60
20866;DHT22;10593;48.398;10.698;2023-01-24T09:09:39;4.40;61.60
20866;DHT22;10593;48.398;10.698;2023-01-24T09:12:05;4.40;61.60
20866;DHT22;10593;48.398;10.698;2023-01-24T09:14:31;4.40;61.60
20866;DHT22;10593;48.398;10.698;2023-01-24T09:16:56;4.40;61.60
20866;DHT22;10593;48.398;10.698;2023-01-24T09:19:22;4.40;61.60
20866;DHT22;10593;48.398;10.698;2023-01-24T09:21:49;4.40;61.60
20866;DHT22;10593;48.398;10.698;2023-01-24T09:24:18;4.40;61.60
20866;DHT22;10593;48.398;10.698;2023-01-24T09:26:44;4.40;61.60
20866;DHT22;10593;48.398;10.698;2023-01-24T09:29:10;4.40;61.60
20866;DHT22;10593;48.398;10.698;2023-01-24T09:31:36;4.40;61.60
20866;DHT22;10593;48.398;10.698;2023-01-24T09:34:02;4.50;61.80
20866;DHT22;10593;48.398;10.698;2023-01-24T09:36:28;4.40;61.70
20866;DHT22;10593;48.398;10.698;2023-01-24T09:38:55;4.50;61.80
20866;DHT22;10593;48.398;10.698;2023-01-24T09:45:03;4.50;61.80
20866;DHT22;10593;48.398;10.698;2023-01-24T09:47:37;4.50;61.80
20866;DHT22;10593;48.398;10.698;2023-01-24T09:52:46;4.50;61.70
20866;DHT22;10593;48.398;10.698;2023-01-24T09:55:32;4.50;61.70
20866;DHT22;10593;48.398;10.698;2023-01-24T09:58:02;4.50;61.80
20866;DHT22;10593;48.398;10.698;2023-01-24T10:00:36;4.50;61.70
20866;DHT22;10593;48.398;10.698;2023-01-24T10:03:04;4.50;61.80
20866;DHT22;10593;48.398;10.698;2023-01-24T10:05:47;4.50;61.70
20866;DHT22;10593;48.398;10.698;2023-01-24T10:08:17;4.50;61.70
20866;DHT22;10593;48.398;10.698;2023-01-24T10:11:09;4.60;61.80
20866;DHT22;10593;48.398;10.698;2023-01-24T10:17:33;4.60;61.80
20866;DHT22;10593;48.398;10.698;2023-01-24T10:26:02;4.60;61.70
20866;DHT22;10593;48.398;10.698;2023-01-24T10:28:38;4.60;61.70
20866;DHT22;10593;48.398;10.698;2023-01-24T10:31:14;4.60;61.60
20866;DHT22;10593;48.398;10.698;2023-01-24T10:33:50;4.60;61.70
20866;DHT22;10593;48.398;10.698;2023-01-24T10:36:43;4.60;61.80
20866;DHT22;10593;48.398;10.698;2023-01-24T10:39:13;4.60;61.80
20866;DHT22;10593;48.398;10.698;2023-01-24T10:41:39;4.60;61.70
20866;DHT22;10593;48.398;10.698;2023-01-24T10:49:37;4.70;61.90
20866;DHT22;10593;48.398;10.698;2023-01-24T10:52:12;4.70;61.80
20866;DHT22;10593;48.398;10.698;2023-01-24T10:54:50;4.60;61.70
20866;DHT22;10593;48.398;10.698;2023-01-24T10:57:43;4.70;61.90
20866;DHT22;10593;48.398;10.698;2023-01-24T11:00:22;4.70;61.90
20866;DHT22;10593;48.398;10.698;2023-01-24T11:03:09;4.70;61.80
20866;DHT22;10593;48.398;10.698;2023-01-24T11:05:51;4.70;61.70
20866;DHT22;10593;48.398;10.698;2023-01-24T11:08:33;4.70;61.70
20866;DHT22;10593;48.398;10.698;2023-01-24T11:11:02;4.70;61.70
20866;DHT22;10593;48.398;10.698;2023-01-24T11:13:41;4.70;61.70
20866;DHT22;10593;48.398;10.698;2023-01-24T11:18:55;4.70;61.70
20866;DHT22;10593;48.398;10.698;2023-01-24T11:21:24;4.80;61.80
20866;DHT22;10593;48.398;10.698;2023-01-24T11:24:04;4.80;62.40
20866;DHT22;10593;48.398;10.698;2023-01-24T11:29:22;4.80;61.80
20866;DHT22;10593;48.398;10.698;2023-01-24T11:31:54;4.80;61.80
20866;DHT22;10593;48.398;10.698;2023-01-24T11:37:38;4.80;61.80
20866;DHT22;10593;48.398;10.698;2023-01-24T11:40:42;4.80;61.80
20866;DHT22;10593;48.398;10.698;2023-01-24T11:43:31;4.80;61.80
20866;DHT22;10593;48.398;10.698;2023-01-24T11:46:20;4.80;61.70
20866;DHT22;10593;48.398;10.698;2023-01-24T11:49:23;4.80;61.80
20866;DHT22;10593;48.398;10.698;2023-01-24T11:52:56;4.90;61.80
20866;DHT22;10593;48.398;10.698;2023-01-24T11:56:35;4.80;61.70
20866;DHT22;10593;48.398;10.698;2023-01-24T12:05:11;4.90;61.50
20866;DHT22;10593;48.398;10.698;2023-01-24T12:22:24;4.90;61.60
20866;DHT22;10593;48.398;10.698;2023-01-24T12:25:20;4.90;61.60
20866;DHT22;10593;48.398;10.698;2023-01-24T12:27:53;4.90;61.60
20866;DHT22;10593;48.398;10.698;2023-01-24T12:30:29;5.00;61.60
20866;DHT22;10593;48.398;10.698;2023-01-24T12:36:43;5.00;61.70
20866;DHT22;10593;48.398;10.698;2023-01-24T12:39:20;5.00;61.60
20866;DHT22;10593;48.398;10.698;2023-01-24T12:42:05;5.00;61.50
20866;DHT22;10593;48.398;10.698;2023-01-24T12:44:42;5.00;61.50
20866;DHT22;10593;48.398;10.698;2023-01-24T12:47:35;5.00;61.50
20866;DHT22;10593;48.398;10.698;2023-01-24T12:53:14;5.00;61.50
20866;DHT22;10593;48.398;10.698;2023-01-24T12:55:54;5.00;61.50
20866;DHT22;10593;48.398;10.698;2023-01-24T12:58:39;5.10;61.60
20866;DHT22;10593;48.398;10.698;2023-01-24T13:04:27;5.10;61.60
20866;DHT22;10593;48.398;10.698;2023-01-24T13:07:31;5.10;61.60
20866;DHT22;10593;48.398;10.698;2023-01-24T13:10:24;5.10;61.60
20866;DHT22;10593;48.398;10.698;2023-01-24T13:13:00;5.10;61.60
20866;DHT22;10593;48.398;10.698;2023-01-24T13:15:42;5.10;61.60
20866;DHT22;10593;48.398;10.698;2023-01-24T13:21:23;5.20;61.70
20866;DHT22;10593;48.398;10.698;2023-01-24T13:27:22;5.20;61.70
20866;DHT22;10593;48.398;10.698;2023-01-24T13:29:54;5.20;61.60
20866;DHT22;10593;48.398;10.698;2023-01-24T13:32:28;5.20;61.60
20866;DHT22;10593;48.398;10.698;2023-01-24T13:35:00;5.20;61.60
20866;DHT22;10593;48.398;10.698;2023-01-24T13:37:28;5.20;61.60
20866;DHT22;10593;48.398;10.698;2023-01-24T13:42:44;5.20;61.60
20866;DHT22;10593;48.398;10.698;2023-01-24T13:47:51;5.20;61.70
20866;DHT22;10593;48.398;10.698;2023-01-24T13:50:20;5.20;61.60
20866;DHT22;10593;48.398;10.698;2023-01-24T13:52:49;5.30;61.60
20866;DHT22;10593;48.398;10.698;2023-01-24T14:00:31;5.30;61.60
20866;DHT22;10593;48.398;10.698;2023-01-24T14:11:06;5.30;61.50
20866;DHT22;10593;48.398;10.698;2023-01-24T14:19:27;5.30;61.60
20866;DHT22;10593;48.398;10.698;2023-01-24T14:22:16;5.40;61.70
20866;DHT22;10593;48.398;10.698;2023-01-24T14:24:53;5.40;61.60
20866;DHT22;10593;48.398;10.698;2023-01-24T14:27:25;5.30;61.40
20866;DHT22;10593;48.398;10.698;2023-01-24T14:36:26;5.40;61.70
20866;DHT22;10593;48.398;10.698;2023-01-24T14:41:59;5.30;61.70
20866;DHT22;10593;48.398;10.698;2023-01-24T14:44:35;5.30;61.60
20866;DHT22;10593;48.398;10.698;2023-01-24T14:47:20;5.30;61.60
20866;DHT22;10593;48.398;10.698;2023-01-24T14:49:51;5.30;61.70
20866;DHT22;10593;48.398;10.698;2023-01-24T14:52:21;5.40;61.80
20866;DHT22;10593;48.398;10.698;2023-01-24T14:54:51;5.30;61.70
20866;DHT22;10593;48.398;10.698;2023-01-24T14:57:26;5.40;61.80
20866;DHT22;10593;48.398;10.698;2023-01-24T15:00:14;5.30;61.70
20866;DHT22;10593;48.398;10.698;2023-01-24T15:02:57;5.30;61.70
20866;DHT22;10593;48.398;10.698;2023-01-24T15:05:33;5.30;61.70
20866;DHT22;10593;48.398;10.698;2023-01-24T15:08:05;5.30;61.70
20866;DHT22;10593;48.398;10.698;2023-01-24T15:10:40;5.30;61.70
20866;DHT22;10593;48.398;10.698;2023-01-24T15:13:09;5.30;61.70
20866;DHT22;10593;48.398;10.698;2023-01-24T15:15:44;5.30;61.90
20866;DHT22;10593;48.398;10.698;2023-01-24T15:20:51;5.40;61.80
20866;DHT22;10593;48.398;10.698;2023-01-24T15:23:20;5.40;61.80
20866;DHT22;10593;48.398;10.698;2023-01-24T15:25:48;5.40;61.80
20866;DHT22;10593;48.398;10.698;2023-01-24T15:31:01;5.30;61.70
20866;DHT22;10593;48.398;10.698;2023-01-24T15:33:42;5.30;61.70
20866;DHT22;10593;48.398;10.698;2023-01-24T15:36:27;5.30;61.70
20866;DHT22;10593;48.398;10.698;2023-01-24T15:38:58;5.30;61.70
20866;DHT22;10593;48.398;10.698;2023-01-24T15:41:34;5.40;61.80
20866;DHT22;10593;48.398;10.698;2023-01-24T15:44:20;5.30;61.70
20866;DHT22;10593;48.398;10.698;2023-01-24T15:46:54;5.40;61.80
20866;DHT22;10593;48.398;10.698;2023-01-24T15:49:56;5.30;61.70
20866;DHT22;10593;48.398;10.698;2023-01-24T15:52:23;5.30;61.70
20866;DHT22;10593;48.398;10.698;2023-01-24T15:54:56;5.30;61.70
20866;DHT22;10593;48.398;10.698;2023-01-24T15:57:32;5.30;61.80
20866;DHT22;10593;48.398;10.698;2023-01-24T16:00:22;5.30;61.90
20866;DHT22;10593;48.398;10.698;2023-01-24T16:02:49;5.30;62.10
20866;DHT22;10593;48.398;10.698;2023-01-24T16:05:17;5.30;61.90
20866;DHT22;10593;48.398;10.698;2023-01-24T16:07:46;5.30;62.00
20866;DHT22;10593;48.398;10.698;2023-01-24T16:10:15;5.30;61.80
20866;DHT22;10593;48.398;10.698;2023-01-24T16:12:42;5.30;62.00
20866;DHT22;10593;48.398;10.698;2023-01-24T16:15:16;5.30;62.00
20866;DHT22;10593;48.398;10.698;2023-01-24T16:17:43;5.30;62.20
20866;DHT22;10593;48.398;10.698;2023-01-24T16:20:19;5.30;62.10
20866;DHT22;10593;48.398;10.698;2023-01-24T16:22:45;5.30;62.20
20866;DHT22;10593;48.398;10.698;2023-01-24T16:25:12;5.30;62.00
20866;DHT22;10593;48.398;10.698;2023-01-24T16:27:38;5.30;62.10
20866;DHT22;10593;48.398;10.698;2023-01-24T16:30:10;5.30;62.10
20866;DHT22;10593;48.398;10.698;2023-01-24T16:32:40;5.30;62.10
20866;DHT22;10593;48.398;10.698;2023-01-24T16:35:06;5.30;62.20
20866;DHT22;10593;48.398;10.698;2023-01-24T16:37:31;5.40;62.30
20866;DHT22;10593;48.398;10.698;2023-01-24T16:39:57;5.30;62.20
20866;DHT22;10593;48.398;10.698;2023-01-24T16:42:22;5.30;62.10
20866;DHT22;10593;48.398;10.698;2023-01-24T16:44:56;5.30;62.20
20866;DHT22;10593;48.398;10.698;2023-01-24T16:47:24;5.30;62.30
20866;DHT22;10593;48.398;10.698;2023-01-24T16:49:54;5.30;62.20
20866;DHT22;10593;48.398;10.698;2023-01-24T16:52:22;5.30;62.20
20866;DHT22;10593;48.398;10.698;2023-01-24T16:54:50;5.30;62.20
20866;DHT22;10593;48.398;10.698;2023-01-24T16:57:16;5.30;62.30
20866;DHT22;10593;48.398;10.698;2023-01-24T16:59:42;5.30;62.20
20866;DHT22;10593;48.398;10.698;2023-01-24T17:02:09;5.30;62.10
20866;DHT22;10593;48.398;10.698;2023-01-24T17:04:35;5.30;62.10
20866;DHT22;10593;48.398;10.698;2023-01-24T17:07:01;5.30;62.20
20866;DHT22;10593;48.398;10.698;2023-01-24T17:09:31;5.30;62.20
20866;DHT22;10593;48.398;10.698;2023-01-24T17:11:58;5.30;62.20
20866;DHT22;10593;48.398;10.698;2023-01-24T17:14:27;5.30;62.10
20866;DHT22;10593;48.398;10.698;2023-01-24T17:16:54;5.30;62.10
20866;DHT22;10593;48.398;10.698;2023-01-24T17:19:20;5.30;62.00
20866;DHT22;10593;48.398;10.698;2023-01-24T17:21:46;5.30;62.10
20866;DHT22;10593;48.398;10.698;2023-01-24T17:24:11;5.30;62.10
20866;DHT22;10593;48.398;10.698;2023-01-24T17:26:37;5.30;62.10
20866;DHT22;10593;48.398;10.698;2023-01-24T17:29:03;5.30;62.10
20866;DHT22;10593;48.398;10.698;2023-01-24T17:31:29;5.30;62.10
20866;DHT22;10593;48.398;10.698;2023-01-24T17:33:55;5.30;62.10
20866;DHT22;10593;48.398;10.698;2023-01-24T17:36:21;5.30;62.20
20866;DHT22;10593;48.398;10.698;2023-01-24T17:38:47;5.30;62.10
20866;DHT22;10593;48.398;10.698;2023-01-24T17:41:17;5.30;62.20
20866;DHT22;10593;48.398;10.698;2023-01-24T17:43:44;5.30;62.20
20866;DHT22;10593;48.398;10.698;2023-01-24T17:46:11;5.30;62.80
20866;DHT22;10593;48.398;10.698;2023-01-24T17:48:37;5.30;62.20
20866;DHT22;10593;48.398;10.698;2023-01-24T17:51:07;5.30;62.30
20866;DHT22;10593;48.398;10.698;2023-01-24T17:53:36;5.30;62.30
20866;DHT22;10593;48.398;10.698;2023-01-24T17:56:02;5.30;62.20